Schuyler, NE (68661)

02:51 CDT le 03 juillet 2015 (GMT -0500)
Keating Lake | | Change Station
CLOSE
Current Station
Stations météorologiques personnelles
Location: Schuyler, NE
Altitude: 1339 ft
Stations météo à proximité

Alt. 1339 ft 41.43 °N, 97.05 °W | Updated 1 minute ago

Couvert
Couvert
63.9 ° F
Paraît 63.9 ° F
N
0.0
Vent Variable Vent de NNE
Gusts 3.0 mph

Aujourd'hui
Haut(e) -- | Bas -- ° F
--% Risque de précip.
Hier
Haut(e) -- | Bas -- ° F
Precip. -- pouce
5:59 AM 9:05 PM
Pleine lune, 98% visible
Pression 30.00 pouce
Visibilité 5.0 Miles terrestres
Nuages Nuageux 1900 ft
Couvert 2500 ft
Point de rosée 63 ° F
Humidité 96%
Précipitations 0.00 pouce
Profondeur de la couche neigeuse Non disponible.
UV 0 sur 12
Pollen 4.10 sur 12
Qualité de l'air Non disponible.
Flu Activity Non disponible.
METAR KOLU 030735Z AUTO 05003KT 5SM BKN019 OVC025 18/15 A3000 RMK AO1

More Conditions Fewer Conditions

Pression 30.00 pouce
Visibilité 5.0 Miles terrestres
Nuages Nuageux 1900 ft
Couvert 2500 ft
Point de rosée 63 ° F
Humidité 96%
Précipitations 0.00 pouce
Profondeur de la couche neigeuse Non disponible.
UV 0 sur 12
Pollen 4.10 sur 12
Qualité de l'air Non disponible.
Flu Activity Non disponible.
METAR KOLU 030735Z AUTO 05003KT 5SM BKN019 OVC025 18/15 A3000 RMK AO1

More Conditions Fewer Conditions

10-Day Weather Forecast

×

Almanac

Astronomie

Jul. 03, 2015 Lever Coucher
Temps réel
Crépuscule civil
Crépuscule nautique
Crépuscule astronomique
Lune
Durée de lumière visible
Longueur du jour
Tomorrow will be .
, % of the Moon is Illuminated

Extrêmes aujourd'hui

State Highs State Lows

Community

WunderPhotos

Upload Photos

1,834,634 Photos téléchargées !

WunderBlogs® & News

Nearby

Qualité de l'air

  Qualité de l'air Indice de la qualité de l'air Polluant
Not available.

Épaisseur de neige

Station Depth Altitude

Activité sismique

Ville Distance Mag. Time & Date
Minimum magnitude displayed is 2.5.

Températures des eaux côtières

Lieu Température

Stations

Stations météo à proximité

Emplacement de la station Température Refroidissement éolien Point de rosée Humidité Vent Precip. Alt. Mise à jour Type